createdAt,value
2023-01-09T00:01:51.319Z,7.02
2023-01-09T00:04:19.936Z,7.03
2023-01-09T00:06:54.224Z,7.06
2023-01-09T00:09:24.391Z,7.21
2023-01-09T00:11:53.040Z,7.30
2023-01-09T00:14:22.996Z,7.34
2023-01-09T00:16:51.311Z,7.37
2023-01-09T00:19:19.617Z,7.39
2023-01-09T00:21:47.827Z,7.51
2023-01-09T00:24:16.079Z,7.58
2023-01-09T00:26:44.256Z,7.68
2023-01-09T00:29:12.493Z,7.84
2023-01-09T00:31:40.560Z,7.96
2023-01-09T00:34:10.690Z,8.02
2023-01-09T00:36:38.949Z,8.11
2023-01-09T00:39:06.994Z,8.16
2023-01-09T00:41:40.331Z,8.17
2023-01-09T00:44:14.770Z,8.16
2023-01-09T00:46:48.768Z,8.14
2023-01-09T00:49:17.893Z,7.95
2023-01-09T00:51:47.174Z,7.86
2023-01-09T00:54:17.989Z,7.79
2023-01-09T00:56:46.503Z,7.95
2023-01-09T00:59:14.872Z,8.17
2023-01-09T01:01:43.112Z,8.16
2023-01-09T01:04:29.768Z,8.13
2023-01-09T01:07:16.668Z,8.12
2023-01-09T01:09:44.777Z,8.08
2023-01-09T01:12:13.178Z,7.86
2023-01-09T01:14:41.462Z,7.59
2023-01-09T01:17:09.698Z,7.33
2023-01-09T01:19:38.020Z,7.33
2023-01-09T01:22:06.189Z,7.42
2023-01-09T01:24:34.362Z,7.47
2023-01-09T01:27:02.811Z,7.47
2023-01-09T01:29:30.908Z,7.47
2023-01-09T01:31:59.065Z,7.51
2023-01-09T01:34:28.901Z,7.47
2023-01-09T01:36:56.934Z,7.75
2023-01-09T01:39:25.036Z,7.82
2023-01-09T01:41:53.315Z,7.63
2023-01-09T01:44:59.063Z,7.58
2023-01-09T01:47:34.129Z,7.81
2023-01-09T01:50:08.230Z,8.11
2023-01-09T01:52:37.538Z,8.36
2023-01-09T01:55:08.515Z,8.54
2023-01-09T01:57:41.053Z,8.46
2023-01-09T02:00:12.071Z,8.27
2023-01-09T02:02:40.494Z,8.32
2023-01-09T02:05:09.429Z,8.23
2023-01-09T02:07:37.550Z,8.03
2023-01-09T02:10:06.437Z,7.98
2023-01-09T02:12:34.659Z,7.93
2023-01-09T02:15:12.297Z,7.98
2023-01-09T02:17:58.885Z,8.06
2023-01-09T02:20:36.273Z,8.12
2023-01-09T02:23:07.292Z,8.07
2023-01-09T02:26:13.052Z,8.08
2023-01-09T02:29:16.713Z,8.16
2023-01-09T02:32:07.943Z,8.20
2023-01-09T02:34:54.970Z,8.30
2023-01-09T02:37:34.929Z,8.26
2023-01-09T02:40:33.733Z,8.06
2023-01-09T02:43:03.568Z,7.92
2023-01-09T02:45:32.059Z,7.71
2023-01-09T02:48:00.377Z,7.51
2023-01-09T02:50:39.796Z,7.42
2023-01-09T02:53:40.976Z,7.32
2023-01-09T02:56:37.099Z,7.12
2023-01-09T02:59:32.237Z,6.86
2023-01-09T03:02:00.520Z,6.62
2023-01-09T03:05:00.712Z,6.53
2023-01-09T03:07:42.023Z,6.60
2023-01-09T03:10:23.551Z,6.74
2023-01-09T03:12:54.351Z,6.85
2023-01-09T03:15:27.137Z,6.67
2023-01-09T03:17:55.969Z,6.63
2023-01-09T03:20:27.926Z,6.58
2023-01-09T03:22:58.581Z,6.42
2023-01-09T03:25:29.107Z,6.25
2023-01-09T03:27:59.924Z,6.13
2023-01-09T03:30:30.449Z,6.07
2023-01-09T03:32:58.848Z,5.90
2023-01-09T03:35:27.681Z,5.80
2023-01-09T03:37:56.115Z,5.79
2023-01-09T03:40:24.282Z,5.87
2023-01-09T03:42:52.547Z,6.03
2023-01-09T03:45:20.624Z,5.95
2023-01-09T03:47:48.820Z,5.87
2023-01-09T03:50:17.186Z,5.65
2023-01-09T03:52:45.469Z,5.46
2023-01-09T03:55:15.512Z,5.36
2023-01-09T03:57:43.922Z,5.30
2023-01-09T04:00:12.761Z,5.31
2023-01-09T04:02:41.315Z,5.39
2023-01-09T04:05:10.010Z,5.38
2023-01-09T04:07:38.276Z,5.31
2023-01-09T04:10:08.962Z,5.16
2023-01-09T04:12:37.074Z,5.15
2023-01-09T04:15:05.681Z,5.11
2023-01-09T04:17:33.779Z,5.05
2023-01-09T04:20:01.896Z,4.93
2023-01-09T04:22:31.457Z,4.96
2023-01-09T04:24:59.491Z,5.00
2023-01-09T04:27:27.953Z,5.11
2023-01-09T04:29:56.225Z,5.20
2023-01-09T04:32:24.399Z,5.18
2023-01-09T04:34:52.588Z,5.21
2023-01-09T04:37:21.363Z,5.26
2023-01-09T04:39:51.501Z,5.21
2023-01-09T04:42:19.544Z,5.19
2023-01-09T04:44:47.615Z,5.15
2023-01-09T04:47:16.004Z,5.09
2023-01-09T04:49:44.168Z,5.19
2023-01-09T04:52:12.645Z,5.23
2023-01-09T04:54:41.031Z,5.25
2023-01-09T04:57:09.199Z,5.28
2023-01-09T04:59:37.314Z,5.33
2023-01-09T05:02:05.483Z,5.32
2023-01-09T05:04:34.304Z,5.26
2023-01-09T05:07:02.910Z,5.28
2023-01-09T05:09:31.622Z,5.38
2023-01-09T05:12:01.826Z,5.39
2023-01-09T05:14:30.408Z,5.38
2023-01-09T05:16:58.390Z,5.47
2023-01-09T05:19:26.646Z,5.56
2023-01-09T05:21:54.843Z,5.61
2023-01-09T05:24:22.985Z,5.50
2023-01-09T05:26:51.436Z,5.39
2023-01-09T05:29:19.901Z,5.28
2023-01-09T05:31:48.305Z,5.21
2023-01-09T05:34:16.368Z,5.23
2023-01-09T05:36:44.454Z,5.31
2023-01-09T05:39:12.819Z,5.37
2023-01-09T05:41:40.951Z,5.54
2023-01-09T05:44:09.151Z,5.60
2023-01-09T05:46:37.368Z,5.57
2023-01-09T05:49:05.412Z,5.53
2023-01-09T05:51:33.714Z,5.54
2023-01-09T05:54:03.149Z,5.39
2023-01-09T05:56:31.271Z,5.30
2023-01-09T05:58:59.576Z,5.46
2023-01-09T06:01:27.824Z,5.46
2023-01-09T06:03:56.083Z,5.52
2023-01-09T06:06:24.413Z,5.54
2023-01-09T06:08:52.656Z,5.54
2023-01-09T06:11:20.936Z,5.58
2023-01-09T06:13:49.014Z,5.60
2023-01-09T06:16:17.445Z,5.59
2023-01-09T06:18:46.485Z,5.68
2023-01-09T06:21:15.116Z,5.63
2023-01-09T06:23:43.230Z,5.52
2023-01-09T06:26:11.508Z,5.48
2023-01-09T06:28:39.990Z,5.63
2023-01-09T06:31:08.468Z,5.82
2023-01-09T06:33:36.762Z,6.06
2023-01-09T06:36:05.525Z,6.23
2023-01-09T06:38:33.598Z,6.32
2023-01-09T06:41:01.752Z,6.32
2023-01-09T06:43:30.258Z,6.29
2023-01-09T06:45:58.571Z,6.35
2023-01-09T06:48:26.801Z,6.34
2023-01-09T06:50:55.129Z,6.18
2023-01-09T06:53:23.294Z,6.15
2023-01-09T06:55:51.586Z,6.22
2023-01-09T06:58:20.830Z,6.33
2023-01-09T07:00:49.709Z,6.50
2023-01-09T07:03:22.710Z,6.60
2023-01-09T07:05:51.292Z,6.71
2023-01-09T07:08:19.697Z,6.66
2023-01-09T07:10:48.139Z,6.65
2023-01-09T07:13:16.396Z,6.81
2023-01-09T07:15:44.461Z,6.93
2023-01-09T07:18:12.615Z,6.95
2023-01-09T07:20:41.652Z,6.98
2023-01-09T07:23:13.203Z,7.00
2023-01-09T07:25:45.259Z,7.04
2023-01-09T07:28:13.466Z,7.10
2023-01-09T07:30:41.471Z,7.26
2023-01-09T07:33:09.623Z,7.46
2023-01-09T07:35:38.159Z,7.42
2023-01-09T07:38:06.296Z,7.42
2023-01-09T07:40:34.810Z,7.50
2023-01-09T07:43:03.205Z,7.59
2023-01-09T07:45:31.467Z,7.65
2023-01-09T07:47:59.648Z,7.77
2023-01-09T07:50:27.945Z,7.91
2023-01-09T07:52:56.293Z,8.22
2023-01-09T07:55:24.663Z,8.43
2023-01-09T07:57:53.144Z,8.44
2023-01-09T08:00:21.851Z,8.48
2023-01-09T08:02:54.189Z,8.50
2023-01-09T08:05:22.888Z,8.49
2023-01-09T08:07:51.551Z,8.43
2023-01-09T08:10:20.472Z,8.34
2023-01-09T08:12:49.676Z,8.48
2023-01-09T08:15:18.150Z,8.57
2023-01-09T08:17:47.477Z,8.72
2023-01-09T08:20:17.482Z,8.70
2023-01-09T08:22:49.781Z,8.73
2023-01-09T08:25:18.511Z,8.80
2023-01-09T08:27:47.232Z,8.77
2023-01-09T08:30:16.924Z,8.78
2023-01-09T08:32:49.560Z,8.73
2023-01-09T08:35:18.039Z,8.74
2023-01-09T08:37:48.096Z,8.79
2023-01-09T08:40:17.727Z,8.88
2023-01-09T08:43:04.260Z,8.94
2023-01-09T08:45:51.822Z,8.99
2023-01-09T08:48:19.927Z,9.00
2023-01-09T08:50:48.681Z,9.21
2023-01-09T08:53:16.919Z,9.37
2023-01-09T08:55:45.127Z,9.37
2023-01-09T08:58:13.242Z,9.28
2023-01-09T09:00:41.784Z,9.17
2023-01-09T09:03:11.707Z,9.09
2023-01-09T09:05:39.920Z,9.14
2023-01-09T09:08:07.987Z,9.25
2023-01-09T09:10:36.154Z,9.27
2023-01-09T09:13:04.620Z,9.38
2023-01-09T09:15:34.555Z,9.46
2023-01-09T09:18:05.349Z,9.45
2023-01-09T09:20:36.589Z,9.33
2023-01-09T09:23:05.931Z,9.21
2023-01-09T09:25:35.410Z,9.19
2023-01-09T09:28:03.554Z,9.23
2023-01-09T09:30:31.625Z,9.15
2023-01-09T09:32:59.772Z,9.23
2023-01-09T09:35:28.645Z,9.38
2023-01-09T09:38:04.847Z,9.60
2023-01-09T09:40:51.662Z,9.79
2023-01-09T09:44:13.382Z,9.99
2023-01-09T09:46:50.776Z,10.12
2023-01-09T09:49:25.265Z,10.18
2023-01-09T09:52:04.171Z,10.30
2023-01-09T09:54:42.584Z,10.45
2023-01-09T09:57:17.307Z,10.33
2023-01-09T09:59:51.272Z,10.21
2023-01-09T10:02:28.254Z,10.15
2023-01-09T10:05:15.070Z,10.06
2023-01-09T10:07:48.530Z,10.15
2023-01-09T10:10:49.599Z,10.23
2023-01-09T10:13:38.969Z,10.30
2023-01-09T10:16:25.073Z,10.36
2023-01-09T10:19:10.908Z,10.23
2023-01-09T10:21:51.280Z,10.30
2023-01-09T10:24:22.230Z,10.28
2023-01-09T10:26:54.357Z,10.33
2023-01-09T10:29:31.705Z,10.38
2023-01-09T10:32:35.052Z,10.40
2023-01-09T10:35:12.004Z,10.36
2023-01-09T10:37:47.385Z,10.43
2023-01-09T10:40:26.214Z,10.46
2023-01-09T10:43:14.021Z,10.48
2023-01-09T10:45:55.452Z,10.53
2023-01-09T10:48:38.097Z,10.56
2023-01-09T10:51:19.477Z,10.61
2023-01-09T10:53:56.022Z,10.60
2023-01-09T10:56:27.324Z,10.65
2023-01-09T10:58:56.971Z,10.81
2023-01-09T11:01:28.675Z,10.90
2023-01-09T11:04:01.820Z,10.89
2023-01-09T11:06:44.730Z,10.85
2023-01-09T11:09:15.195Z,10.75
2023-01-09T11:11:45.475Z,10.73
2023-01-09T11:14:27.835Z,10.72
2023-01-09T11:16:58.387Z,10.61
2023-01-09T11:19:27.726Z,10.51
2023-01-09T11:22:12.204Z,10.44
2023-01-09T11:24:40.383Z,10.34
2023-01-09T11:27:14.453Z,10.34
2023-01-09T11:29:43.460Z,10.30
2023-01-09T11:32:23.432Z,10.28
2023-01-09T11:34:51.612Z,10.25
2023-01-09T11:37:27.730Z,10.17
2023-01-09T11:39:59.152Z,10.14
2023-01-09T11:42:48.260Z,10.10
2023-01-09T11:45:18.791Z,9.97
2023-01-09T11:47:48.237Z,9.94
2023-01-09T11:50:27.071Z,9.88
2023-01-09T11:53:13.856Z,9.85
2023-01-09T11:55:43.537Z,9.88
2023-01-09T11:58:15.380Z,9.94
2023-01-09T12:01:11.295Z,10.01
2023-01-09T12:04:17.868Z,10.22
2023-01-09T12:07:10.224Z,10.30
2023-01-09T12:10:17.255Z,10.34
2023-01-09T12:13:14.359Z,10.39
2023-01-09T12:16:21.446Z,10.44
2023-01-09T12:18:49.751Z,10.51
2023-01-09T12:21:23.831Z,10.71
2023-01-09T12:24:42.694Z,10.90
2023-01-09T12:27:21.097Z,11.10
2023-01-09T12:30:16.035Z,11.29
2023-01-09T12:33:08.736Z,11.45
2023-01-09T12:35:45.733Z,11.55
2023-01-09T12:38:54.622Z,11.54
2023-01-09T12:41:23.261Z,11.59
2023-01-09T12:44:34.130Z,11.62
2023-01-09T12:47:09.133Z,11.70
2023-01-09T12:49:49.499Z,11.60
2023-01-09T12:52:32.518Z,11.53
2023-01-09T12:55:08.682Z,11.47
2023-01-09T12:57:42.586Z,11.29
2023-01-09T13:00:23.959Z,11.25
2023-01-09T13:03:12.887Z,11.18
2023-01-09T13:05:46.168Z,11.11
2023-01-09T13:08:32.114Z,10.95
2023-01-09T13:11:20.518Z,10.86
2023-01-09T13:14:06.768Z,10.87
2023-01-09T13:16:44.024Z,10.86
2023-01-09T13:19:27.951Z,10.95
2023-01-09T13:21:58.033Z,11.03
2023-01-09T13:24:47.445Z,11.04
2023-01-09T13:27:20.256Z,11.05
2023-01-09T13:29:55.698Z,11.07
2023-01-09T13:32:37.178Z,11.16
2023-01-09T13:35:13.012Z,11.26
2023-01-09T13:37:42.762Z,11.27
2023-01-09T13:40:20.806Z,11.34
2023-01-09T13:43:02.991Z,11.33
2023-01-09T13:45:37.124Z,11.21
2023-01-09T13:48:12.046Z,11.17
2023-01-09T13:50:42.324Z,11.13
2023-01-09T13:53:20.114Z,11.15
2023-01-09T13:55:57.641Z,11.13
2023-01-09T13:58:30.299Z,10.99
2023-01-09T14:01:04.814Z,10.88
2023-01-09T14:03:38.911Z,10.83
2023-01-09T14:06:13.266Z,10.75
2023-01-09T14:08:42.783Z,10.64
2023-01-09T14:11:19.849Z,10.56
2023-01-09T14:13:55.596Z,10.48
2023-01-09T14:16:27.266Z,10.40
2023-01-09T14:19:21.591Z,10.34
2023-01-09T14:21:56.631Z,10.31
2023-01-09T14:24:35.305Z,10.34
2023-01-09T14:27:03.647Z,10.31
2023-01-09T14:29:35.816Z,10.29
2023-01-09T14:32:22.563Z,10.24
2023-01-09T14:35:15.185Z,10.21
2023-01-09T14:37:45.401Z,10.27
2023-01-09T14:40:23.022Z,10.35
2023-01-09T14:42:55.167Z,10.38
2023-01-09T14:45:27.132Z,10.40
2023-01-09T14:48:03.992Z,10.42
2023-01-09T14:50:58.143Z,10.48
2023-01-09T14:53:34.457Z,10.45
2023-01-09T14:56:06.726Z,10.39
2023-01-09T14:58:37.022Z,10.31
2023-01-09T15:01:06.560Z,10.27
2023-01-09T15:03:44.392Z,10.31
2023-01-09T15:06:25.638Z,10.29
2023-01-09T15:09:03.069Z,10.28
2023-01-09T15:11:33.441Z,10.28
2023-01-09T15:14:05.011Z,10.26
2023-01-09T15:16:33.588Z,10.28
2023-01-09T15:19:05.177Z,10.29
2023-01-09T15:21:33.623Z,10.31
2023-01-09T15:24:13.231Z,10.35
2023-01-09T15:26:41.397Z,10.35
2023-01-09T15:29:18.278Z,10.33
2023-01-09T15:31:49.953Z,10.37
2023-01-09T15:34:22.444Z,10.40
2023-01-09T15:36:52.760Z,10.45
2023-01-09T15:39:36.914Z,10.49
2023-01-09T15:42:25.169Z,10.49
2023-01-09T15:44:53.951Z,10.46
2023-01-09T15:47:27.732Z,10.44
2023-01-09T15:49:57.103Z,10.34
2023-01-09T15:52:25.946Z,10.30
2023-01-09T15:54:54.022Z,10.24
2023-01-09T15:57:25.155Z,10.24
2023-01-09T15:59:54.192Z,10.32
2023-01-09T16:02:42.550Z,10.37
2023-01-09T16:05:16.611Z,10.38
2023-01-09T16:07:49.376Z,10.36
2023-01-09T16:10:51.968Z,10.40
2023-01-09T16:13:24.337Z,10.35
2023-01-09T16:15:53.590Z,10.18
2023-01-09T16:18:23.423Z,10.08
2023-01-09T16:21:03.044Z,9.91
2023-01-09T16:23:36.037Z,9.80
2023-01-09T16:26:14.439Z,9.76
2023-01-09T16:28:43.021Z,9.67
2023-01-09T16:31:21.000Z,9.67
2023-01-09T16:33:54.219Z,9.59
2023-01-09T16:36:23.919Z,9.62
2023-01-09T16:38:53.676Z,9.70
2023-01-09T16:41:41.331Z,9.71
2023-01-09T16:44:10.766Z,9.79
2023-01-09T16:46:43.631Z,9.83
2023-01-09T16:49:20.655Z,9.95
2023-01-09T16:51:49.279Z,10.07
2023-01-09T16:54:17.416Z,10.11
2023-01-09T16:56:49.282Z,10.20
2023-01-09T16:59:26.880Z,10.32
2023-01-09T17:01:55.726Z,10.39
2023-01-09T17:04:24.136Z,10.44
2023-01-09T17:06:52.295Z,10.50
2023-01-09T17:09:27.442Z,10.57
2023-01-09T17:11:55.791Z,10.64
2023-01-09T17:14:24.787Z,10.60
2023-01-09T17:16:53.094Z,10.47
2023-01-09T17:19:21.847Z,10.37
2023-01-09T17:21:49.876Z,10.35
2023-01-09T17:24:36.827Z,10.45
2023-01-09T17:27:23.595Z,10.52
2023-01-09T17:29:51.917Z,10.47
2023-01-09T17:32:20.187Z,10.47
2023-01-09T17:34:48.700Z,10.54
2023-01-09T17:37:19.335Z,10.58
2023-01-09T17:39:47.573Z,10.59
2023-01-09T17:42:15.955Z,10.53
2023-01-09T17:44:44.122Z,10.47
2023-01-09T17:47:18.148Z,10.37
2023-01-09T17:49:46.241Z,10.34
2023-01-09T17:52:14.579Z,10.32
2023-01-09T17:54:43.217Z,10.28
2023-01-09T17:57:16.818Z,10.26
2023-01-09T17:59:45.289Z,10.26
2023-01-09T18:02:20.000Z,10.28
2023-01-09T18:04:48.129Z,10.23
2023-01-09T18:07:17.348Z,10.20
2023-01-09T18:09:45.463Z,10.21
2023-01-09T18:12:14.212Z,10.20
2023-01-09T18:14:42.987Z,10.18
2023-01-09T18:17:13.351Z,10.19
2023-01-09T18:19:41.509Z,10.24
2023-01-09T18:22:09.554Z,10.24
2023-01-09T18:24:37.837Z,10.28
2023-01-09T18:27:06.113Z,10.25
2023-01-09T18:29:34.184Z,10.21
2023-01-09T18:32:02.383Z,10.24
2023-01-09T18:34:30.479Z,10.29
2023-01-09T18:36:58.701Z,10.19
2023-01-09T18:39:26.981Z,10.10
2023-01-09T18:41:55.170Z,10.14
2023-01-09T18:44:23.676Z,10.12
2023-01-09T18:46:51.799Z,10.04
2023-01-09T18:49:19.907Z,10.04
2023-01-09T18:51:48.233Z,10.02
2023-01-09T18:54:16.347Z,10.04
2023-01-09T18:56:44.387Z,10.02
2023-01-09T18:59:12.467Z,10.00
2023-01-09T19:01:40.829Z,10.02
2023-01-09T19:04:08.961Z,9.96
2023-01-09T19:06:37.826Z,9.90
2023-01-09T19:09:06.861Z,9.91
2023-01-09T19:11:35.057Z,9.88
2023-01-09T19:14:03.469Z,9.88
2023-01-09T19:16:31.694Z,9.85
2023-01-09T19:19:02.140Z,9.81
2023-01-09T19:21:30.624Z,9.76
2023-01-09T19:23:59.021Z,9.67
2023-01-09T19:26:29.010Z,9.42
2023-01-09T19:29:00.775Z,9.01
2023-01-09T19:31:29.201Z,8.63
2023-01-09T19:33:58.800Z,8.36
2023-01-09T19:36:28.415Z,8.15
2023-01-09T19:38:58.005Z,8.07
2023-01-09T19:41:27.479Z,8.21
2023-01-09T19:43:55.718Z,8.40
2023-01-09T19:46:25.838Z,8.56
2023-01-09T19:48:54.330Z,8.74
2023-01-09T19:51:22.894Z,8.88
2023-01-09T19:56:31.362Z,8.94
2023-01-09T19:59:02.254Z,9.04
2023-01-09T20:01:39.550Z,9.12
2023-01-09T20:04:13.584Z,9.22
2023-01-09T20:06:45.413Z,9.37
2023-01-09T20:09:17.312Z,9.56
2023-01-09T20:11:47.496Z,9.70
2023-01-09T20:14:19.169Z,9.83
2023-01-09T20:16:48.873Z,9.90
2023-01-09T20:19:17.236Z,9.87
2023-01-09T20:21:46.577Z,9.89
2023-01-09T20:24:16.841Z,9.93
2023-01-09T20:26:49.673Z,9.96
2023-01-09T20:29:18.424Z,9.94
2023-01-09T20:31:47.047Z,9.92
2023-01-09T20:34:15.588Z,9.93
2023-01-09T20:36:43.927Z,9.96
2023-01-09T20:39:12.509Z,9.95
2023-01-09T20:41:40.975Z,9.93
2023-01-09T20:44:14.158Z,9.89
2023-01-09T20:46:48.156Z,9.77
2023-01-09T20:49:21.035Z,9.79
2023-01-09T20:51:52.935Z,9.83
2023-01-09T20:54:22.442Z,9.82
2023-01-09T20:56:50.990Z,9.84
2023-01-09T20:59:23.139Z,9.89
2023-01-09T21:01:51.637Z,10.00
2023-01-09T21:04:19.931Z,10.05
2023-01-09T21:06:49.992Z,9.85
2023-01-09T21:09:18.924Z,9.57
2023-01-09T21:11:47.099Z,9.40
2023-01-09T21:14:15.267Z,9.38
2023-01-09T21:16:47.912Z,9.44
2023-01-09T21:19:22.854Z,9.48
2023-01-09T21:21:53.245Z,9.44
2023-01-09T21:24:22.002Z,9.36
2023-01-09T21:26:50.168Z,9.30
2023-01-09T21:29:18.344Z,9.24
2023-01-09T21:31:46.479Z,9.24
2023-01-09T21:34:15.820Z,9.30
2023-01-09T21:36:45.200Z,9.30
2023-01-09T21:39:13.478Z,9.35
2023-01-09T21:42:00.136Z,9.38
2023-01-09T21:44:47.099Z,9.35
2023-01-09T21:47:15.175Z,9.33
2023-01-09T21:49:44.604Z,9.35
2023-01-09T21:52:13.954Z,9.35
2023-01-09T21:54:42.150Z,9.25
2023-01-09T21:57:10.955Z,9.19
2023-01-09T21:59:39.111Z,9.16
2023-01-09T22:02:07.179Z,9.13
2023-01-09T22:04:35.256Z,9.12
2023-01-09T22:07:03.524Z,9.06
2023-01-09T22:09:31.542Z,9.08
2023-01-09T22:11:59.500Z,9.07
2023-01-09T22:14:27.547Z,9.05
2023-01-09T22:16:55.703Z,9.06
2023-01-09T22:19:23.695Z,9.07
2023-01-09T22:21:51.848Z,9.03
2023-01-09T22:24:21.749Z,8.98
2023-01-09T22:26:50.015Z,8.96
2023-01-09T22:29:19.035Z,8.92
2023-01-09T22:31:47.986Z,8.92
2023-01-09T22:34:18.552Z,8.87
2023-01-09T22:36:47.414Z,8.89
2023-01-09T22:39:18.362Z,8.95
2023-01-09T22:41:51.983Z,8.86
2023-01-09T22:44:20.264Z,8.84
2023-01-09T22:46:48.511Z,8.69
2023-01-09T22:49:19.572Z,8.64
2023-01-09T22:51:47.644Z,8.63
2023-01-09T22:54:16.062Z,8.68
2023-01-09T22:56:44.181Z,8.74
2023-01-09T22:59:12.412Z,8.76
2023-01-09T23:01:40.657Z,8.77
2023-01-09T23:04:17.974Z,8.76
2023-01-09T23:06:46.213Z,8.73
2023-01-09T23:09:14.980Z,8.62
2023-01-09T23:12:01.687Z,8.61
2023-01-09T23:14:31.945Z,8.65
2023-01-09T23:17:00.209Z,8.61
2023-01-09T23:19:30.741Z,8.58
2023-01-09T23:22:00.929Z,8.58
2023-01-09T23:24:30.108Z,8.65
2023-01-09T23:26:58.382Z,8.74
2023-01-09T23:29:26.766Z,8.80
2023-01-09T23:31:54.953Z,8.83
2023-01-09T23:34:25.714Z,8.72
2023-01-09T23:36:57.425Z,8.51
2023-01-09T23:39:25.724Z,8.36
2023-01-09T23:42:12.737Z,8.29
2023-01-09T23:44:40.837Z,8.30
2023-01-09T23:47:09.285Z,8.45
2023-01-09T23:49:37.607Z,8.63
2023-01-09T23:52:06.794Z,8.71
2023-01-09T23:54:36.470Z,8.75
2023-01-09T23:57:05.153Z,8.81
2023-01-09T23:59:33.745Z,8.79
